Kaluba — 5IM657 — position and weather

sailwx.info

Track history (hours):
 
Tides and Currents Weather Stations Pressure Air Temp Water Temp Dewpoint Dewpoint Depression Visibility Wind Speed Wind Dir Waves Ship Positions

Kaluba

Last reported at 2017-Dec-17 04:00 UTC. Time now 2017-Dec-17 04:25 UTC.
Position N 35°30' E 025°45'.

Length 60 m.

Type: Tanker. MMSI: 677055700.

Date/timePositionNaut miles runAvg speedWind from/ knotsBaromVisibWave heightAir tempDewpointWater temp
2017-Dec-17 04:00N 35°30' E 025°45'510.7
2017-Dec-17 03:31N 35°31' E 025°39'510.7
2017-Dec-17 03:00N 35°33' E 025°32'510.5
2017-Dec-17 02:30N 35°34' E 025°26'510.3
2017-Dec-17 02:00N 35°35' E 025°20'510.0
2017-Dec-17 01:31N 35°36' E 025°14'5 9.9
2017-Dec-17 01:00N 35°37' E 025°08'5 9.6
2017-Dec-17 00:30N 35°38' E 025°02'8 9.7
2017-Dec-16 23:42N 35°40' E 024°53'23 9.8
2017-Dec-16 21:22N 35°44' E 024°25'3 9.2
2017-Dec-16 21:00N 35°45' E 024°21'5 9.3
2017-Dec-16 20:30N 35°45' E 024°15'6 9.5
2017-Dec-16 19:54N 35°47' E 024°09'1610.3
2017-Dec-16 18:23N 35°50' E 023°50'5108200.2
2017-Dec-15 16:52N 19°48' W 070°42'0 0.0
2017-Dec-15 16:30N 19°48' W 070°42'0 0.0
2017-Dec-15 16:00N 19°48' W 070°42'0 0.0
2017-Dec-15 15:30N 19°48' W 070°42'0 0.0
2017-Dec-15 15:00N 19°48' W 070°42'0 0.0
2017-Dec-15 14:30N 19°48' W 070°42'0 0.0
2017-Dec-15 14:00N 19°48' W 070°42'0 0.0
2017-Dec-15 13:30N 19°48' W 070°42'0 0.0
2017-Dec-15 12:58N 19°48' W 070°42'4554114.2
2017-Dec-13 21:04N 44°06' E 014°03'210.5
2017-Dec-13 20:50N 44°08' E 014°01'610.6
2017-Dec-13 20:16N 44°13' E 013°56'310.6
2017-Dec-13 20:00N 44°15' E 013°54'510.4
2017-Dec-13 19:30N 44°19' E 013°50'510.4
2017-Dec-13 19:00N 44°24' E 013°45'510.4
2017-Dec-13 18:30N 44°28' E 013°41'510.3
2017-Dec-13 18:01N 44°32' E 013°37'510.2
2017-Dec-13 17:31N 44°37' E 013°34'510.2
2017-Dec-13 17:01N 44°41' E 013°30'5 9.9
2017-Dec-13 16:30N 44°45' E 013°26'5 9.8
2017-Dec-13 16:00N 44°49' E 013°22'5 9.9
2017-Dec-13 15:30N 44°53' E 013°18'5 9.9
2017-Dec-13 15:00N 44°57' E 013°15'5 9.9
2017-Dec-13 14:31N 45°02' E 013°11'5 9.8
2017-Dec-13 14:00N 45°06' E 013°07'5 9.8
2017-Dec-13 13:31N 45°10' E 013°04'5 9.9
2017-Dec-13 13:00N 45°15' E 013°03'5 9.9
2017-Dec-13 12:30N 45°20' E 013°02'5 9.4
2017-Dec-13 12:01N 45°25' E 013°03'510.0
2017-Dec-13 11:31N 45°28' E 013°08'510.1
2017-Dec-13 11:01N 45°31' E 013°14'510.1
2017-Dec-13 10:30N 45°34' E 013°20'510.2
2017-Dec-13 10:00N 45°36' E 013°26'510.3
2017-Dec-13 09:30N 45°38' E 013°33'510.0
2017-Dec-13 09:00N 45°35' E 013°40'4 7.6
2017-Dec-13 08:31N 45°33' E 013°44'0 0.5
2017-Dec-13 07:59N 45°34' E 013°45'0 0.0
2017-Dec-13 07:26N 45°34' E 013°45'0 0.0
2017-Dec-13 06:53N 45°34' E 013°45'0 0.0
2017-Dec-13 06:25N 45°34' E 013°45'0 0.0
2017-Dec-13 05:59N 45°34' E 013°45'0 0.0
2017-Dec-13 05:22N 45°34' E 013°45'0 0.0
2017-Dec-13 04:58N 45°34' E 013°45'0 0.0
2017-Dec-13 04:25N 45°34' E 013°45'0 0.0
2017-Dec-13 03:58N 45°34' E 013°45'0 0.0
2017-Dec-13 03:25N 45°34' E 013°45'0 0.0
2017-Dec-13 02:58N 45°34' E 013°45'0 0.0
2017-Dec-13 02:28N 45°34' E 013°45'0 0.0
2017-Dec-13 01:55N 45°34' E 013°45'0 0.0
2017-Dec-13 01:22N 45°34' E 013°45'0 0.0
2017-Dec-13 00:49N 45°34' E 013°45'0 0.0
2017-Dec-13 00:28N 45°34' E 013°45'0 0.0
2017-Dec-12 23:58N 45°34' E 013°45'0 0.0
2017-Dec-12 23:25N 45°34' E 013°45'0 0.0
2017-Dec-12 22:58N 45°34' E 013°45'0 0.0
2017-Dec-12 22:25N 45°34' E 013°45'0 0.0
2017-Dec-12 21:55N 45°34' E 013°45'0 0.0
2017-Dec-12 21:28N 45°34' E 013°45'0 0.0
2017-Dec-12 20:52N 45°34' E 013°45'0 0.0
2017-Dec-12 20:28N 45°34' E 013°45'0 0.0
2017-Dec-12 19:58N 45°34' E 013°45'0 0.0
2017-Dec-12 19:25N 45°34' E 013°45'0 0.0
2017-Dec-12 18:55N 45°34' E 013°45'0 0.0
2017-Dec-12 18:28N 45°34' E 013°45'0 0.0
2017-Dec-12 17:58N 45°34' E 013°45'0 0.0
2017-Dec-12 17:13N 45°34' E 013°45'0 0.0
2017-Dec-12 16:58N 45°34' E 013°45'0 0.0
2017-Dec-12 16:25N 45°34' E 013°45'0 0.0
2017-Dec-12 15:58N 45°34' E 013°45'0 0.0
2017-Dec-12 15:28N 45°34' E 013°45'0 0.0
2017-Dec-12 14:58N 45°34' E 013°45'0 0.0
2017-Dec-12 14:25N 45°34' E 013°45'0 0.0
2017-Dec-12 13:58N 45°34' E 013°45'0 0.0
2017-Dec-12 13:25N 45°34' E 013°45'0 0.0
2017-Dec-12 12:55N 45°34' E 013°45'0 0.0
2017-Dec-12 12:28N 45°34' E 013°45'0 0.0
2017-Dec-12 11:55N 45°34' E 013°45'0 0.0
2017-Dec-12 11:25N 45°34' E 013°45'0 0.0
2017-Dec-12 10:58N 45°34' E 013°45'0 0.0
2017-Dec-12 10:28N 45°34' E 013°45'0 0.0
2017-Dec-12 09:58N 45°34' E 013°45'0 0.0
2017-Dec-12 09:13N 45°34' E 013°45'0 0.0
2017-Dec-12 08:46N 45°34' E 013°45'0 0.0
2017-Dec-12 08:25N 45°34' E 013°45'0 0.0
2017-Dec-12 07:58N 45°34' E 013°45'0 0.0
2017-Dec-12 07:25N 45°34' E 013°45'0 0.0
2017-Dec-12 06:58N 45°34' E 013°45'0 0.0
2017-Dec-12 06:28N 45°34' E 013°45'0 0.0
2017-Dec-12 05:55N 45°34' E 013°45'0 0.0
2017-Dec-12 05:28N 45°34' E 013°45'0 0.0
2017-Dec-12 04:52N 45°34' E 013°45'0 0.0
2017-Dec-12 04:28N 45°34' E 013°45'0 0.0
2017-Dec-12 03:52N 45°34' E 013°45'0 0.0
2017-Dec-12 03:28N 45°34' E 013°45'0 0.0
2017-Dec-12 02:58N 45°34' E 013°45'0 0.0
2017-Dec-12 02:28N 45°34' E 013°45'0 0.0
2017-Dec-12 01:55N 45°34' E 013°45'0 0.0
2017-Dec-12 01:28N 45°34' E 013°45'0 0.0
2017-Dec-12 00:52N 45°34' E 013°45'0 0.0
2017-Dec-12 00:25N 45°34' E 013°45'0 0.0
2017-Dec-11 23:52N 45°34' E 013°45'0 0.0
2017-Dec-11 23:25N 45°34' E 013°45'0 0.0
2017-Dec-11 22:55N 45°34' E 013°45'0 0.0
2017-Dec-11 22:28N 45°34' E 013°45'0 0.0
2017-Dec-11 21:58N 45°34' E 013°45'0 0.0
2017-Dec-11 21:28N 45°34' E 013°45'0 0.0
2017-Dec-11 20:55N 45°34' E 013°45'0 0.0
2017-Dec-11 20:28N 45°34' E 013°45'0 0.0
2017-Dec-11 19:58N 45°34' E 013°45'0 0.0
2017-Dec-11 19:25N 45°34' E 013°45'0 0.0
2017-Dec-11 18:58N 45°34' E 013°45'0 0.0
2017-Dec-11 18:28N 45°34' E 013°45'0 0.0
2017-Dec-11 17:55N 45°34' E 013°45'0 0.0
2017-Dec-11 17:25N 45°34' E 013°45'0 0.0
2017-Dec-11 16:58N 45°34' E 013°45'0 0.0
2017-Dec-11 16:28N 45°34' E 013°45'0 0.0
2017-Dec-11 15:46N 45°34' E 013°45'0 0.0
2017-Dec-11 15:28N 45°34' E 013°45'0 0.0
2017-Dec-11 14:52N 45°34' E 013°45'0 0.0
2017-Dec-11 14:28N 45°34' E 013°45'0 0.0
2017-Dec-11 13:52N 45°34' E 013°45'0 0.0
2017-Dec-11 13:25N 45°34' E 013°45'0 0.0
2017-Dec-11 12:58N 45°34' E 013°45'0 0.0
2017-Dec-11 12:25N 45°34' E 013°45'0 0.0
2017-Dec-11 11:55N 45°34' E 013°45'0 0.0
2017-Dec-11 11:28N 45°34' E 013°45'0 0.0
2017-Dec-11 10:58N 45°34' E 013°45'0 0.0
2017-Dec-11 10:28N 45°34' E 013°45'0 0.0
2017-Dec-11 09:58N 45°34' E 013°45'0 0.0
2017-Dec-11 09:28N 45°34' E 013°45'0 0.0
2017-Dec-11 08:55N 45°34' E 013°45'0 0.0
2017-Dec-11 08:25N 45°34' E 013°45'0 0.0
2017-Dec-11 07:58N 45°34' E 013°45'0 0.0
2017-Dec-11 07:28N 45°34' E 013°45'0 0.0
2017-Dec-11 06:55N 45°34' E 013°45'0 0.0
2017-Dec-11 06:28N 45°34' E 013°45'0 0.0
2017-Dec-11 05:55N 45°34' E 013°45'0 0.0
2017-Dec-11 05:19N 45°34' E 013°45'0 0.0
2017-Dec-11 04:55N 45°34' E 013°45'0 0.0
2017-Dec-11 04:25N 45°34' E 013°45'0 0.0
2017-Dec-11 03:55N 45°34' E 013°45'0 0.0
2017-Dec-11 03:28N 45°34' E 013°45'0 0.0
2017-Dec-11 02:58N 45°34' E 013°45'0 0.0
2017-Dec-11 02:28N 45°34' E 013°45'0 0.0
2017-Dec-11 01:55N 45°34' E 013°45'0 0.0
2017-Dec-11 01:28N 45°34' E 013°45'0 0.0
2017-Dec-11 00:58N 45°34' E 013°45'0 0.0
2017-Dec-11 00:25N 45°34' E 013°45'0 0.0
2017-Dec-10 23:58N 45°34' E 013°45'0 0.0
2017-Dec-10 23:22N 45°34' E 013°45'0 0.0
2017-Dec-10 22:58N 45°34' E 013°45'0 0.0
2017-Dec-10 22:25N 45°34' E 013°45'0 0.0
2017-Dec-10 21:58N 45°34' E 013°45'0 0.0
2017-Dec-10 21:28N 45°34' E 013°45'0 0.0
2017-Dec-10 20:55N 45°34' E 013°45'0 0.0
2017-Dec-10 20:28N 45°34' E 013°45'0 0.0
2017-Dec-10 19:55N 45°34' E 013°45'0 0.0
2017-Dec-10 19:22N 45°34' E 013°45'0 0.0
2017-Dec-10 18:52N 45°34' E 013°45'0 0.0
2017-Dec-10 18:28N 45°34' E 013°45'0 0.0
2017-Dec-10 17:58N 45°34' E 013°45'0 0.0
2017-Dec-10 17:25N 45°34' E 013°45'0 0.0
2017-Dec-10 16:58N 45°34' E 013°45'0 0.0
2017-Dec-10 16:28N 45°34' E 013°45'0 0.0
2017-Dec-10 15:49N 45°34' E 013°45'0 0.0
2017-Dec-10 15:25N 45°34' E 013°45'0 0.0
2017-Dec-10 14:55N 45°34' E 013°45'0 0.0
2017-Dec-10 14:28N 45°34' E 013°45'0 0.0
2017-Dec-10 13:58N 45°34' E 013°45'0 0.0
2017-Dec-10 13:25N 45°34' E 013°45'0 0.0
2017-Dec-10 12:55N 45°34' E 013°45'0 0.0
2017-Dec-10 12:25N 45°34' E 013°45'0 0.0
2017-Dec-10 11:58N 45°34' E 013°45'0 0.0
2017-Dec-10 11:28N 45°34' E 013°45'0 0.0
2017-Dec-10 10:55N 45°34' E 013°45'0 0.0
2017-Dec-10 10:28N 45°34' E 013°45'0 0.0
2017-Dec-10 09:55N 45°34' E 013°45'0 0.0
2017-Dec-10 09:22N 45°34' E 013°45'0 0.0
2017-Dec-10 08:58N 45°34' E 013°45'0 0.0
2017-Dec-10 08:25N 45°34' E 013°45'0 0.0
2017-Dec-10 07:58N 45°34' E 013°45'0 0.0
2017-Dec-10 07:22N 45°34' E 013°45'0 0.0
2017-Dec-10 06:58N 45°34' E 013°45'0 0.0
2017-Dec-10 06:28N 45°34' E 013°45'0 0.0
2017-Dec-10 05:55N 45°34' E 013°45'0 0.0
2017-Dec-10 05:28N 45°34' E 013°45'0 0.0
2017-Dec-10 04:58N 45°34' E 013°45'0 0.0
2017-Dec-10 04:25N 45°34' E 013°45'0 0.0
2017-Dec-10 03:58N 45°34' E 013°45'0 0.0
2017-Dec-10 03:28N 45°34' E 013°45'0 0.0
2017-Dec-10 02:52N 45°34' E 013°45'0 0.0
2017-Dec-10 02:28N 45°34' E 013°45'0 0.0
2017-Dec-10 01:55N 45°34' E 013°45'0 0.0
2017-Dec-10 01:28N 45°34' E 013°45'0 0.0
2017-Dec-10 00:43N 45°34' E 013°45'0 0.0
2017-Dec-10 00:28N 45°34' E 013°45'0 0.0
2017-Dec-09 23:58N 45°34' E 013°45'0 0.0
2017-Dec-09 23:28N 45°34' E 013°45'0 0.0
2017-Dec-09 22:58N 45°34' E 013°45'0 0.0
2017-Dec-09 22:28N 45°34' E 013°45'0 0.0
2017-Dec-09 21:55N 45°34' E 013°45'0 0.0
2017-Dec-09 21:28N 45°34' E 013°45'0 0.0
2017-Dec-09 20:55N 45°34' E 013°45'0 0.0
2017-Dec-09 20:28N 45°34' E 013°45'0 0.0
2017-Dec-09 19:52N 45°34' E 013°45'0 0.0
2017-Dec-09 19:25N 45°34' E 013°45'0 0.0
2017-Dec-09 18:58N 45°34' E 013°45'0 0.0
2017-Dec-09 18:19N 45°34' E 013°45'0 0.0
2017-Dec-09 17:49N 45°34' E 013°45'0 0.0
2017-Dec-09 17:07N 45°34' E 013°45'0 0.0
2017-Dec-09 16:55N 45°34' E 013°45'0 0.0
2017-Dec-09 16:30N 45°34' E 013°45'1 1.3
2017-Dec-09 16:00N 45°34' E 013°44'2 3.7
2017-Dec-09 15:30N 45°35' E 013°42'0 0.4
2017-Dec-09 14:58N 45°35' E 013°42'0 0.0
2017-Dec-09 14:28N 45°35' E 013°42'0 0.0
2017-Dec-09 13:55N 45°35' E 013°42'0 0.0
2017-Dec-09 13:28N 45°35' E 013°42'0 0.0
2017-Dec-09 12:58N 45°35' E 013°42'0 0.0
2017-Dec-09 12:31N 45°35' E 013°42'0 0.0
2017-Dec-09 12:01N 45°35' E 013°42'0 0.0
2017-Dec-09 11:25N 45°35' E 013°42'0 0.0
2017-Dec-09 10:58N 45°35' E 013°42'0 0.0
2017-Dec-09 10:30N 45°35' E 013°42'0 0.0
2017-Dec-09 10:00N 45°35' E 013°42'0 0.0
2017-Dec-09 09:30N 45°35' E 013°42'0 0.0
2017-Dec-09 09:00N 45°35' E 013°42'0 0.0
2017-Dec-09 08:30N 45°35' E 013°42'0 0.0
2017-Dec-09 07:57N 45°35' E 013°42'0 0.0
2017-Dec-09 07:27N 45°35' E 013°42'0 0.0
2017-Dec-09 07:00N 45°35' E 013°42'0 0.0
2017-Dec-09 06:30N 45°35' E 013°42'0 0.0
2017-Dec-09 06:00N 45°35' E 013°42'0 0.0
2017-Dec-09 05:30N 45°35' E 013°42'0 0.0
2017-Dec-09 04:57N 45°35' E 013°42'0 0.0
2017-Dec-09 04:30N 45°35' E 013°42'0 0.0
2017-Dec-09 04:00N 45°35' E 013°42'0 0.0
2017-Dec-09 03:27N 45°35' E 013°42'0 0.0
2017-Dec-09 03:00N 45°35' E 013°42'0 0.1
2017-Dec-09 02:27N 45°35' E 013°42'0 0.1
2017-Dec-09 02:00N 45°35' E 013°42'0 0.1
2017-Dec-09 01:30N 45°35' E 013°42'0 0.1
2017-Dec-09 00:54N 45°35' E 013°42'0 0.1
2017-Dec-09 00:30N 45°35' E 013°42'0 0.3
2017-Dec-09 00:00N 45°35' E 013°43'0 0.0
2017-Dec-08 23:27N 45°35' E 013°43'0 0.0
2017-Dec-08 23:00N 45°35' E 013°43'0 0.0
2017-Dec-08 22:30N 45°35' E 013°43'0 0.0
2017-Dec-08 21:57N 45°35' E 013°43'0 0.0
2017-Dec-08 21:30N 45°35' E 013°43'0 0.0
2017-Dec-08 20:57N 45°35' E 013°43'0 0.0
2017-Dec-08 20:30N 45°35' E 013°43'0 0.0
2017-Dec-08 20:00N 45°35' E 013°43'0 0.0
2017-Dec-08 19:30N 45°35' E 013°43'0 0.0
2017-Dec-08 18:57N 45°35' E 013°43'0 0.0
2017-Dec-08 18:27N 45°35' E 013°43'0 0.0
2017-Dec-08 18:00N 45°35' E 013°43'0 0.0
2017-Dec-08 17:27N 45°35' E 013°43'0 0.0
2017-Dec-08 16:51N 45°35' E 013°43'0 0.2
2017-Dec-08 16:30N 45°35' E 013°42'0 0.0
2017-Dec-08 15:48N 45°35' E 013°42'0 0.0
2017-Dec-08 15:24N 45°35' E 013°42'0 0.3
2017-Dec-08 15:00N 45°35' E 013°42'0 0.0
2017-Dec-08 14:30N 45°35' E 013°42'0 0.0
2017-Dec-08 13:54N 45°35' E 013°42'0 0.0
2017-Dec-08 13:27N 45°35' E 013°42'0 0.0
2017-Dec-08 13:00N 45°35' E 013°42'0 0.0
2017-Dec-08 12:30N 45°35' E 013°42'0 0.0
2017-Dec-08 11:57N 45°35' E 013°42'0 0.0
2017-Dec-08 11:27N 45°35' E 013°42'0 0.0
2017-Dec-08 10:48N 45°35' E 013°42'0 0.0
2017-Dec-08 10:30N 45°35' E 013°42'0 0.0
2017-Dec-08 10:00N 45°35' E 013°42'0 0.0
2017-Dec-08 09:30N 45°35' E 013°42'0 0.0
2017-Dec-08 08:54N 45°35' E 013°42'0 0.0
2017-Dec-08 08:30N 45°35' E 013°42'0 0.0
2017-Dec-08 07:57N 45°35' E 013°42'0 0.0
2017-Dec-08 07:30N 45°35' E 013°42'0 0.0
2017-Dec-08 06:54N 45°35' E 013°42'0 0.0
2017-Dec-08 06:30N 45°35' E 013°42'0 0.0
2017-Dec-08 06:00N 45°35' E 013°42'0 0.0
2017-Dec-08 05:30N 45°35' E 013°42'0 0.0
2017-Dec-08 05:00N 45°35' E 013°42'0 0.0
2017-Dec-08 04:30N 45°35' E 013°42'0 0.0
2017-Dec-08 04:00N 45°35' E 013°42'0 0.0
2017-Dec-08 03:30N 45°35' E 013°42'0 0.0
2017-Dec-08 02:57N 45°35' E 013°42'0 0.0
2017-Dec-08 02:30N 45°35' E 013°42'0 0.0
2017-Dec-08 02:00N 45°35' E 013°42'0 0.0
2017-Dec-08 01:21N 45°35' E 013°42'0 0.0
2017-Dec-08 01:00N 45°35' E 013°42'0 0.0
2017-Dec-08 00:30N 45°35' E 013°42'0 0.0
2017-Dec-08 00:00N 45°35' E 013°42'0 0.0
2017-Dec-07 23:24N 45°35' E 013°42'0 0.0
2017-Dec-07 23:00N 45°35' E 013°42'0 0.0
2017-Dec-07 22:30N 45°35' E 013°42'0 0.0
2017-Dec-07 22:00N 45°35' E 013°42'0 0.0
2017-Dec-07 21:27N 45°35' E 013°42'0 0.0
2017-Dec-07 21:00N 45°35' E 013°42'0 0.0
2017-Dec-07 20:30N 45°35' E 013°42'0 0.0
2017-Dec-07 19:54N 45°35' E 013°42'0 0.0
2017-Dec-07 19:27N 45°35' E 013°42'0 0.0
2017-Dec-07 19:00N 45°35' E 013°42'0 0.0
2017-Dec-07 18:30N 45°35' E 013°42'0 0.0
2017-Dec-07 17:57N 45°35' E 013°42'0 0.0
2017-Dec-07 17:24N 45°35' E 013°42'0 0.0
2017-Dec-07 17:00N 45°35' E 013°42'0 0.0
2017-Dec-07 16:27N 45°35' E 013°42'0 0.0
2017-Dec-07 16:00N 45°35' E 013°42'0 0.0
2017-Dec-07 15:30N 45°35' E 013°42'0 0.0
2017-Dec-07 15:00N 45°35' E 013°42'0 0.0
2017-Dec-07 14:30N 45°35' E 013°42'0 0.0
2017-Dec-07 14:00N 45°35' E 013°42'0 0.0
2017-Dec-07 13:30N 45°35' E 013°42'0 0.0
2017-Dec-07 13:00N 45°35' E 013°42'0 0.0
2017-Dec-07 12:30N 45°35' E 013°42'0 0.0
2017-Dec-07 12:00N 45°35' E 013°42'0 0.0
2017-Dec-07 11:30N 45°35' E 013°42'0 0.0
2017-Dec-07 11:00N 45°35' E 013°42'0 0.0
2017-Dec-07 10:30N 45°35' E 013°42'0 0.0
2017-Dec-07 10:00N 45°35' E 013°42'0 0.0
2017-Dec-07 09:30N 45°35' E 013°42'0 0.0
2017-Dec-07 09:00N 45°35' E 013°42'0 0.0
2017-Dec-07 08:30N 45°35' E 013°42'0 0.0
2017-Dec-07 08:00N 45°35' E 013°42'0 0.0
2017-Dec-07 07:30N 45°35' E 013°42'0 0.0
2017-Dec-07 07:00N 45°35' E 013°42'0 0.0
2017-Dec-07 06:30N 45°35' E 013°42'0 0.0
2017-Dec-07 06:00N 45°35' E 013°42'0 0.0
2017-Dec-07 05:30N 45°35' E 013°42'0 0.0
2017-Dec-07 05:00N 45°35' E 013°42'0 0.0
2017-Dec-07 04:30N 45°35' E 013°42'0 0.0
2017-Dec-07 04:00N 45°35' E 013°42'  
Track history (hours):
 
Tides and Currents Weather Stations Pressure Air Temp Water Temp Dewpoint Dewpoint Depression Visibility Wind Speed Wind Dir Waves Ship Positions

Kaluba

Last reported at 2017-Dec-17 04:00 UTC. Time now 2017-Dec-17 04:25 UTC.
Position N 35°30' E 025°45'.

Length 60 m.

Type: Tanker. MMSI: 677055700.

Date/timePositionNaut miles runAvg speedWind from/ knotsBaromVisibWave heightAir tempDewpointWater temp
2017-Dec-17 04:00N 35°30' E 025°45'510.7
2017-Dec-17 03:31N 35°31' E 025°39'510.7
2017-Dec-17 03:00N 35°33' E 025°32'510.5
2017-Dec-17 02:30N 35°34' E 025°26'510.3
2017-Dec-17 02:00N 35°35' E 025°20'510.0
2017-Dec-17 01:31N 35°36' E 025°14'5 9.9
2017-Dec-17 01:00N 35°37' E 025°08'5 9.6
2017-Dec-17 00:30N 35°38' E 025°02'8 9.7
2017-Dec-16 23:42N 35°40' E 024°53'23 9.8
2017-Dec-16 21:22N 35°44' E 024°25'3 9.2
2017-Dec-16 21:00N 35°45' E 024°21'5 9.3
2017-Dec-16 20:30N 35°45' E 024°15'6 9.5
2017-Dec-16 19:54N 35°47' E 024°09'1610.3
2017-Dec-16 18:23N 35°50' E 023°50'5108200.2
2017-Dec-15 16:52N 19°48' W 070°42'0 0.0
2017-Dec-15 16:30N 19°48' W 070°42'0 0.0
2017-Dec-15 16:00N 19°48' W 070°42'0 0.0
2017-Dec-15 15:30N 19°48' W 070°42'0 0.0
2017-Dec-15 15:00N 19°48' W 070°42'0 0.0
2017-Dec-15 14:30N 19°48' W 070°42'0 0.0
2017-Dec-15 14:00N 19°48' W 070°42'0 0.0
2017-Dec-15 13:30N 19°48' W 070°42'0 0.0
2017-Dec-15 12:58N 19°48' W 070°42'4554114.2
2017-Dec-13 21:04N 44°06' E 014°03'210.5
2017-Dec-13 20:50N 44°08' E 014°01'610.6
2017-Dec-13 20:16N 44°13' E 013°56'310.6
2017-Dec-13 20:00N 44°15' E 013°54'510.4
2017-Dec-13 19:30N 44°19' E 013°50'510.4
2017-Dec-13 19:00N 44°24' E 013°45'510.4
2017-Dec-13 18:30N 44°28' E 013°41'510.3
2017-Dec-13 18:01N 44°32' E 013°37'510.2
2017-Dec-13 17:31N 44°37' E 013°34'510.2
2017-Dec-13 17:01N 44°41' E 013°30'5 9.9
2017-Dec-13 16:30N 44°45' E 013°26'5 9.8
2017-Dec-13 16:00N 44°49' E 013°22'5 9.9
2017-Dec-13 15:30N 44°53' E 013°18'5 9.9
2017-Dec-13 15:00N 44°57' E 013°15'5 9.9
2017-Dec-13 14:31N 45°02' E 013°11'5 9.8
2017-Dec-13 14:00N 45°06' E 013°07'5 9.8
2017-Dec-13 13:31N 45°10' E 013°04'5 9.9
2017-Dec-13 13:00N 45°15' E 013°03'5 9.9
2017-Dec-13 12:30N 45°20' E 013°02'5 9.4
2017-Dec-13 12:01N 45°25' E 013°03'510.0
2017-Dec-13 11:31N 45°28' E 013°08'510.1
2017-Dec-13 11:01N 45°31' E 013°14'510.1
2017-Dec-13 10:30N 45°34' E 013°20'510.2
2017-Dec-13 10:00N 45°36' E 013°26'510.3
2017-Dec-13 09:30N 45°38' E 013°33'510.0
2017-Dec-13 09:00N 45°35' E 013°40'4 7.6
2017-Dec-13 08:31N 45°33' E 013°44'0 0.5
2017-Dec-13 07:59N 45°34' E 013°45'0 0.0
2017-Dec-13 07:26N 45°34' E 013°45'0 0.0
2017-Dec-13 06:53N 45°34' E 013°45'0 0.0
2017-Dec-13 06:25N 45°34' E 013°45'0 0.0
2017-Dec-13 05:59N 45°34' E 013°45'0 0.0
2017-Dec-13 05:22N 45°34' E 013°45'0 0.0
2017-Dec-13 04:58N 45°34' E 013°45'0 0.0
2017-Dec-13 04:25N 45°34' E 013°45'0 0.0
2017-Dec-13 03:58N 45°34' E 013°45'0 0.0
2017-Dec-13 03:25N 45°34' E 013°45'0 0.0
2017-Dec-13 02:58N 45°34' E 013°45'0 0.0
2017-Dec-13 02:28N 45°34' E 013°45'0 0.0
2017-Dec-13 01:55N 45°34' E 013°45'0 0.0
2017-Dec-13 01:22N 45°34' E 013°45'0 0.0
2017-Dec-13 00:49N 45°34' E 013°45'0 0.0
2017-Dec-13 00:28N 45°34' E 013°45'0 0.0
2017-Dec-12 23:58N 45°34' E 013°45'0 0.0
2017-Dec-12 23:25N 45°34' E 013°45'0 0.0
2017-Dec-12 22:58N 45°34' E 013°45'0 0.0
2017-Dec-12 22:25N 45°34' E 013°45'0 0.0
2017-Dec-12 21:55N 45°34' E 013°45'0 0.0
2017-Dec-12 21:28N 45°34' E 013°45'0 0.0
2017-Dec-12 20:52N 45°34' E 013°45'0 0.0
2017-Dec-12 20:28N 45°34' E 013°45'0 0.0
2017-Dec-12 19:58N 45°34' E 013°45'0 0.0
2017-Dec-12 19:25N 45°34' E 013°45'0 0.0
2017-Dec-12 18:55N 45°34' E 013°45'0 0.0
2017-Dec-12 18:28N 45°34' E 013°45'0 0.0
2017-Dec-12 17:58N 45°34' E 013°45'0 0.0
2017-Dec-12 17:13N 45°34' E 013°45'0 0.0
2017-Dec-12 16:58N 45°34' E 013°45'0 0.0
2017-Dec-12 16:25N 45°34' E 013°45'0 0.0
2017-Dec-12 15:58N 45°34' E 013°45'0 0.0
2017-Dec-12 15:28N 45°34' E 013°45'0 0.0
2017-Dec-12 14:58N 45°34' E 013°45'0 0.0
2017-Dec-12 14:25N 45°34' E 013°45'0 0.0
2017-Dec-12 13:58N 45°34' E 013°45'0 0.0
2017-Dec-12 13:25N 45°34' E 013°45'0 0.0
2017-Dec-12 12:55N 45°34' E 013°45'0 0.0
2017-Dec-12 12:28N 45°34' E 013°45'0 0.0
2017-Dec-12 11:55N 45°34' E 013°45'0 0.0
2017-Dec-12 11:25N 45°34' E 013°45'0 0.0
2017-Dec-12 10:58N 45°34' E 013°45'0 0.0
2017-Dec-12 10:28N 45°34' E 013°45'0 0.0
2017-Dec-12 09:58N 45°34' E 013°45'0 0.0
2017-Dec-12 09:13N 45°34' E 013°45'0 0.0
2017-Dec-12 08:46N 45°34' E 013°45'0 0.0
2017-Dec-12 08:25N 45°34' E 013°45'0 0.0
2017-Dec-12 07:58N 45°34' E 013°45'0 0.0
2017-Dec-12 07:25N 45°34' E 013°45'0 0.0
2017-Dec-12 06:58N 45°34' E 013°45'0 0.0
2017-Dec-12 06:28N 45°34' E 013°45'0 0.0
2017-Dec-12 05:55N 45°34' E 013°45'0 0.0
2017-Dec-12 05:28N 45°34' E 013°45'0 0.0
2017-Dec-12 04:52N 45°34' E 013°45'0 0.0
2017-Dec-12 04:28N 45°34' E 013°45'0 0.0
2017-Dec-12 03:52N 45°34' E 013°45'0 0.0
2017-Dec-12 03:28N 45°34' E 013°45'0 0.0
2017-Dec-12 02:58N 45°34' E 013°45'0 0.0
2017-Dec-12 02:28N 45°34' E 013°45'0 0.0
2017-Dec-12 01:55N 45°34' E 013°45'0 0.0
2017-Dec-12 01:28N 45°34' E 013°45'0 0.0
2017-Dec-12 00:52N 45°34' E 013°45'0 0.0
2017-Dec-12 00:25N 45°34' E 013°45'0 0.0
2017-Dec-11 23:52N 45°34' E 013°45'0 0.0
2017-Dec-11 23:25N 45°34' E 013°45'0 0.0
2017-Dec-11 22:55N 45°34' E 013°45'0 0.0
2017-Dec-11 22:28N 45°34' E 013°45'0 0.0
2017-Dec-11 21:58N 45°34' E 013°45'0 0.0
2017-Dec-11 21:28N 45°34' E 013°45'0 0.0
2017-Dec-11 20:55N 45°34' E 013°45'0 0.0
2017-Dec-11 20:28N 45°34' E 013°45'0 0.0
2017-Dec-11 19:58N 45°34' E 013°45'0 0.0
2017-Dec-11 19:25N 45°34' E 013°45'0 0.0
2017-Dec-11 18:58N 45°34' E 013°45'0 0.0
2017-Dec-11 18:28N 45°34' E 013°45'0 0.0
2017-Dec-11 17:55N 45°34' E 013°45'0 0.0
2017-Dec-11 17:25N 45°34' E 013°45'0 0.0
2017-Dec-11 16:58N 45°34' E 013°45'0 0.0
2017-Dec-11 16:28N 45°34' E 013°45'0 0.0
2017-Dec-11 15:46N 45°34' E 013°45'0 0.0
2017-Dec-11 15:28N 45°34' E 013°45'0 0.0
2017-Dec-11 14:52N 45°34' E 013°45'0 0.0
2017-Dec-11 14:28N 45°34' E 013°45'0 0.0
2017-Dec-11 13:52N 45°34' E 013°45'0 0.0
2017-Dec-11 13:25N 45°34' E 013°45'0 0.0
2017-Dec-11 12:58N 45°34' E 013°45'0 0.0
2017-Dec-11 12:25N 45°34' E 013°45'0 0.0
2017-Dec-11 11:55N 45°34' E 013°45'0 0.0
2017-Dec-11 11:28N 45°34' E 013°45'0 0.0
2017-Dec-11 10:58N 45°34' E 013°45'0 0.0
2017-Dec-11 10:28N 45°34' E 013°45'0 0.0
2017-Dec-11 09:58N 45°34' E 013°45'0 0.0
2017-Dec-11 09:28N 45°34' E 013°45'0 0.0
2017-Dec-11 08:55N 45°34' E 013°45'0 0.0
2017-Dec-11 08:25N 45°34' E 013°45'0 0.0
2017-Dec-11 07:58N 45°34' E 013°45'0 0.0
2017-Dec-11 07:28N 45°34' E 013°45'0 0.0
2017-Dec-11 06:55N 45°34' E 013°45'0 0.0
2017-Dec-11 06:28N 45°34' E 013°45'0 0.0
2017-Dec-11 05:55N 45°34' E 013°45'0 0.0
2017-Dec-11 05:19N 45°34' E 013°45'0 0.0
2017-Dec-11 04:55N 45°34' E 013°45'0 0.0
2017-Dec-11 04:25N 45°34' E 013°45'0 0.0
2017-Dec-11 03:55N 45°34' E 013°45'0 0.0
2017-Dec-11 03:28N 45°34' E 013°45'0 0.0
2017-Dec-11 02:58N 45°34' E 013°45'0 0.0
2017-Dec-11 02:28N 45°34' E 013°45'0 0.0
2017-Dec-11 01:55N 45°34' E 013°45'0 0.0
2017-Dec-11 01:28N 45°34' E 013°45'0 0.0
2017-Dec-11 00:58N 45°34' E 013°45'0 0.0
2017-Dec-11 00:25N 45°34' E 013°45'0 0.0
2017-Dec-10 23:58N 45°34' E 013°45'0 0.0
2017-Dec-10 23:22N 45°34' E 013°45'0 0.0
2017-Dec-10 22:58N 45°34' E 013°45'0 0.0
2017-Dec-10 22:25N 45°34' E 013°45'0 0.0
2017-Dec-10 21:58N 45°34' E 013°45'0 0.0
2017-Dec-10 21:28N 45°34' E 013°45'0 0.0
2017-Dec-10 20:55N 45°34' E 013°45'0 0.0
2017-Dec-10 20:28N 45°34' E 013°45'0 0.0
2017-Dec-10 19:55N 45°34' E 013°45'0 0.0
2017-Dec-10 19:22N 45°34' E 013°45'0 0.0
2017-Dec-10 18:52N 45°34' E 013°45'0 0.0
2017-Dec-10 18:28N 45°34' E 013°45'0 0.0
2017-Dec-10 17:58N 45°34' E 013°45'0 0.0
2017-Dec-10 17:25N 45°34' E 013°45'0 0.0
2017-Dec-10 16:58N 45°34' E 013°45'0 0.0
2017-Dec-10 16:28N 45°34' E 013°45'0 0.0
2017-Dec-10 15:49N 45°34' E 013°45'0 0.0
2017-Dec-10 15:25N 45°34' E 013°45'0 0.0
2017-Dec-10 14:55N 45°34' E 013°45'0 0.0
2017-Dec-10 14:28N 45°34' E 013°45'0 0.0
2017-Dec-10 13:58N 45°34' E 013°45'0 0.0
2017-Dec-10 13:25N 45°34' E 013°45'0 0.0
2017-Dec-10 12:55N 45°34' E 013°45'0 0.0
2017-Dec-10 12:25N 45°34' E 013°45'0 0.0
2017-Dec-10 11:58N 45°34' E 013°45'0 0.0
2017-Dec-10 11:28N 45°34' E 013°45'0 0.0
2017-Dec-10 10:55N 45°34' E 013°45'0 0.0
2017-Dec-10 10:28N 45°34' E 013°45'0 0.0
2017-Dec-10 09:55N 45°34' E 013°45'0 0.0
2017-Dec-10 09:22N 45°34' E 013°45'0 0.0
2017-Dec-10 08:58N 45°34' E 013°45'0 0.0
2017-Dec-10 08:25N 45°34' E 013°45'0 0.0
2017-Dec-10 07:58N 45°34' E 013°45'0 0.0
2017-Dec-10 07:22N 45°34' E 013°45'0 0.0
2017-Dec-10 06:58N 45°34' E 013°45'0 0.0
2017-Dec-10 06:28N 45°34' E 013°45'0 0.0
2017-Dec-10 05:55N 45°34' E 013°45'0 0.0
2017-Dec-10 05:28N 45°34' E 013°45'0 0.0
2017-Dec-10 04:58N 45°34' E 013°45'0 0.0
2017-Dec-10 04:25N 45°34' E 013°45'0 0.0
2017-Dec-10 03:58N 45°34' E 013°45'0 0.0
2017-Dec-10 03:28N 45°34' E 013°45'0 0.0
2017-Dec-10 02:52N 45°34' E 013°45'0 0.0
2017-Dec-10 02:28N 45°34' E 013°45'0 0.0
2017-Dec-10 01:55N 45°34' E 013°45'0 0.0
2017-Dec-10 01:28N 45°34' E 013°45'0 0.0
2017-Dec-10 00:43N 45°34' E 013°45'0 0.0
2017-Dec-10 00:28N 45°34' E 013°45'0 0.0
2017-Dec-09 23:58N 45°34' E 013°45'0 0.0
2017-Dec-09 23:28N 45°34' E 013°45'0 0.0
2017-Dec-09 22:58N 45°34' E 013°45'0 0.0
2017-Dec-09 22:28N 45°34' E 013°45'0 0.0
2017-Dec-09 21:55N 45°34' E 013°45'0 0.0
2017-Dec-09 21:28N 45°34' E 013°45'0 0.0
2017-Dec-09 20:55N 45°34' E 013°45'0 0.0
2017-Dec-09 20:28N 45°34' E 013°45'0 0.0
2017-Dec-09 19:52N 45°34' E 013°45'0 0.0
2017-Dec-09 19:25N 45°34' E 013°45'0 0.0
2017-Dec-09 18:58N 45°34' E 013°45'0 0.0
2017-Dec-09 18:19N 45°34' E 013°45'0 0.0
2017-Dec-09 17:49N 45°34' E 013°45'0 0.0
2017-Dec-09 17:07N 45°34' E 013°45'0 0.0
2017-Dec-09 16:55N 45°34' E 013°45'0 0.0
2017-Dec-09 16:30N 45°34' E 013°45'1 1.3
2017-Dec-09 16:00N 45°34' E 013°44'2 3.7
2017-Dec-09 15:30N 45°35' E 013°42'0 0.4
2017-Dec-09 14:58N 45°35' E 013°42'0 0.0
2017-Dec-09 14:28N 45°35' E 013°42'0 0.0
2017-Dec-09 13:55N 45°35' E 013°42'0 0.0
2017-Dec-09 13:28N 45°35' E 013°42'0 0.0
2017-Dec-09 12:58N 45°35' E 013°42'0 0.0
2017-Dec-09 12:31N 45°35' E 013°42'0 0.0
2017-Dec-09 12:01N 45°35' E 013°42'0 0.0
2017-Dec-09 11:25N 45°35' E 013°42'0 0.0
2017-Dec-09 10:58N 45°35' E 013°42'0 0.0
2017-Dec-09 10:30N 45°35' E 013°42'0 0.0
2017-Dec-09 10:00N 45°35' E 013°42'0 0.0
2017-Dec-09 09:30N 45°35' E 013°42'0 0.0
2017-Dec-09 09:00N 45°35' E 013°42'0 0.0
2017-Dec-09 08:30N 45°35' E 013°42'0 0.0
2017-Dec-09 07:57N 45°35' E 013°42'0 0.0
2017-Dec-09 07:27N 45°35' E 013°42'0 0.0
2017-Dec-09 07:00N 45°35' E 013°42'0 0.0
2017-Dec-09 06:30N 45°35' E 013°42'0 0.0
2017-Dec-09 06:00N 45°35' E 013°42'0 0.0
2017-Dec-09 05:30N 45°35' E 013°42'0 0.0
2017-Dec-09 04:57N 45°35' E 013°42'0 0.0
2017-Dec-09 04:30N 45°35' E 013°42'0 0.0
2017-Dec-09 04:00N 45°35' E 013°42'0 0.0
2017-Dec-09 03:27N 45°35' E 013°42'0 0.0
2017-Dec-09 03:00N 45°35' E 013°42'0 0.1
2017-Dec-09 02:27N 45°35' E 013°42'0 0.1
2017-Dec-09 02:00N 45°35' E 013°42'0 0.1
2017-Dec-09 01:30N 45°35' E 013°42'0 0.1
2017-Dec-09 00:54N 45°35' E 013°42'0 0.1
2017-Dec-09 00:30N 45°35' E 013°42'0 0.3
2017-Dec-09 00:00N 45°35' E 013°43'0 0.0
2017-Dec-08 23:27N 45°35' E 013°43'0 0.0
2017-Dec-08 23:00N 45°35' E 013°43'0 0.0
2017-Dec-08 22:30N 45°35' E 013°43'0 0.0
2017-Dec-08 21:57N 45°35' E 013°43'0 0.0
2017-Dec-08 21:30N 45°35' E 013°43'0 0.0
2017-Dec-08 20:57N 45°35' E 013°43'0 0.0
2017-Dec-08 20:30N 45°35' E 013°43'0 0.0
2017-Dec-08 20:00N 45°35' E 013°43'0 0.0
2017-Dec-08 19:30N 45°35' E 013°43'0 0.0
2017-Dec-08 18:57N 45°35' E 013°43'0 0.0
2017-Dec-08 18:27N 45°35' E 013°43'0 0.0
2017-Dec-08 18:00N 45°35' E 013°43'0 0.0
2017-Dec-08 17:27N 45°35' E 013°43'0 0.0
2017-Dec-08 16:51N 45°35' E 013°43'0 0.2
2017-Dec-08 16:30N 45°35' E 013°42'0 0.0
2017-Dec-08 15:48N 45°35' E 013°42'0 0.0
2017-Dec-08 15:24N 45°35' E 013°42'0 0.3
2017-Dec-08 15:00N 45°35' E 013°42'0 0.0
2017-Dec-08 14:30N 45°35' E 013°42'0 0.0
2017-Dec-08 13:54N 45°35' E 013°42'0 0.0
2017-Dec-08 13:27N 45°35' E 013°42'0 0.0
2017-Dec-08 13:00N 45°35' E 013°42'0 0.0
2017-Dec-08 12:30N 45°35' E 013°42'0 0.0
2017-Dec-08 11:57N 45°35' E 013°42'0 0.0
2017-Dec-08 11:27N 45°35' E 013°42'0 0.0
2017-Dec-08 10:48N 45°35' E 013°42'0 0.0
2017-Dec-08 10:30N 45°35' E 013°42'0 0.0
2017-Dec-08 10:00N 45°35' E 013°42'0 0.0
2017-Dec-08 09:30N 45°35' E 013°42'0 0.0
2017-Dec-08 08:54N 45°35' E 013°42'0 0.0
2017-Dec-08 08:30N 45°35' E 013°42'0 0.0
2017-Dec-08 07:57N 45°35' E 013°42'0 0.0
2017-Dec-08 07:30N 45°35' E 013°42'0 0.0
2017-Dec-08 06:54N 45°35' E 013°42'0 0.0
2017-Dec-08 06:30N 45°35' E 013°42'0 0.0
2017-Dec-08 06:00N 45°35' E 013°42'0 0.0
2017-Dec-08 05:30N 45°35' E 013°42'0 0.0
2017-Dec-08 05:00N 45°35' E 013°42'0 0.0
2017-Dec-08 04:30N 45°35' E 013°42'0 0.0
2017-Dec-08 04:00N 45°35' E 013°42'0 0.0
2017-Dec-08 03:30N 45°35' E 013°42'0 0.0
2017-Dec-08 02:57N 45°35' E 013°42'0 0.0
2017-Dec-08 02:30N 45°35' E 013°42'0 0.0
2017-Dec-08 02:00N 45°35' E 013°42'0 0.0
2017-Dec-08 01:21N 45°35' E 013°42'0 0.0
2017-Dec-08 01:00N 45°35' E 013°42'0 0.0
2017-Dec-08 00:30N 45°35' E 013°42'0 0.0
2017-Dec-08 00:00N 45°35' E 013°42'0 0.0
2017-Dec-07 23:24N 45°35' E 013°42'0 0.0
2017-Dec-07 23:00N 45°35' E 013°42'0 0.0
2017-Dec-07 22:30N 45°35' E 013°42'0 0.0
2017-Dec-07 22:00N 45°35' E 013°42'0 0.0
2017-Dec-07 21:27N 45°35' E 013°42'0 0.0
2017-Dec-07 21:00N 45°35' E 013°42'0 0.0
2017-Dec-07 20:30N 45°35' E 013°42'0 0.0
2017-Dec-07 19:54N 45°35' E 013°42'0 0.0
2017-Dec-07 19:27N 45°35' E 013°42'0 0.0
2017-Dec-07 19:00N 45°35' E 013°42'0 0.0
2017-Dec-07 18:30N 45°35' E 013°42'0 0.0
2017-Dec-07 17:57N 45°35' E 013°42'0 0.0
2017-Dec-07 17:24N 45°35' E 013°42'0 0.0
2017-Dec-07 17:00N 45°35' E 013°42'0 0.0
2017-Dec-07 16:27N 45°35' E 013°42'0 0.0
2017-Dec-07 16:00N 45°35' E 013°42'0 0.0
2017-Dec-07 15:30N 45°35' E 013°42'0 0.0
2017-Dec-07 15:00N 45°35' E 013°42'0 0.0
2017-Dec-07 14:30N 45°35' E 013°42'0 0.0
2017-Dec-07 14:00N 45°35' E 013°42'0 0.0
2017-Dec-07 13:30N 45°35' E 013°42'0 0.0
2017-Dec-07 13:00N 45°35' E 013°42'0 0.0
2017-Dec-07 12:30N 45°35' E 013°42'0 0.0
2017-Dec-07 12:00N 45°35' E 013°42'0 0.0
2017-Dec-07 11:30N 45°35' E 013°42'0 0.0
2017-Dec-07 11:00N 45°35' E 013°42'0 0.0
2017-Dec-07 10:30N 45°35' E 013°42'0 0.0
2017-Dec-07 10:00N 45°35' E 013°42'0 0.0
2017-Dec-07 09:30N 45°35' E 013°42'0 0.0
2017-Dec-07 09:00N 45°35' E 013°42'0 0.0
2017-Dec-07 08:30N 45°35' E 013°42'0 0.0
2017-Dec-07 08:00N 45°35' E 013°42'0 0.0
2017-Dec-07 07:30N 45°35' E 013°42'0 0.0
2017-Dec-07 07:00N 45°35' E 013°42'0 0.0
2017-Dec-07 06:30N 45°35' E 013°42'0 0.0
2017-Dec-07 06:00N 45°35' E 013°42'0 0.0
2017-Dec-07 05:30N 45°35' E 013°42'0 0.0
2017-Dec-07 05:00N 45°35' E 013°42'0 0.0
2017-Dec-07 04:30N 45°35' E 013°42'0 0.0
2017-Dec-07 04:00N 45°35' E 013°42'  

Dump ship's entire track history